Time;durP1;ratioP1;P1;durP2;ratioP2;P2;SDS_P1;SDS_P2;PMS_P1;PMS_P2;Temp;Humidity;BMP_temperature;BMP_pressure;BME280_temperature;BME280_humidity;BME280_pressure;Samples;Min_cycle;Max_cycle;Signal;HPM_P1;HPM_P2
2022/08/05 00:00:24;;;;;;;8.60;4.00;;;;;;;22.54;100.00;101237.09;2056309;28;20630;-64
2022/08/05 00:01:24;;;;;;;7.07;3.70;;;;;;;22.63;100.00;101245.41;2056640;28;20182;-64
2022/08/05 00:02:25;;;;;;;6.83;4.00;;;;;;;22.66;100.00;101239.50;2056869;28;20558;-63
2022/08/05 00:03:26;;;;;;;7.80;3.93;;;;;;;22.04;100.00;101140.59;2064999;28;20241;-64
2022/08/05 00:04:26;;;;;;;9.20;3.90;;;;;;;22.72;100.00;101245.97;2063727;28;20213;-64
2022/08/05 00:05:27;;;;;;;9.90;3.50;;;;;;;22.74;100.00;101242.66;2058356;28;20201;-64
2022/08/05 00:06:27;;;;;;;5.83;3.90;;;;;;;22.74;100.00;101251.13;2056217;28;20198;-64
2022/08/05 00:07:28;;;;;;;7.20;4.07;;;;;;;22.31;100.00;101173.94;2060130;28;20213;-64
2022/08/05 00:08:28;;;;;;;5.23;3.73;;;;;;;22.76;100.00;101243.72;2061493;28;20657;-63
2022/08/05 00:09:29;;;;;;;5.83;3.77;;;;;;;22.78;100.00;101246.78;2056141;28;20183;-63
2022/08/05 00:10:30;;;;;;;8.93;3.60;;;;;;;22.70;100.00;101237.25;2055799;28;20270;-65
2022/08/05 00:11:30;;;;;;;5.60;3.60;;;;;;;22.76;100.00;101242.91;2057116;28;20190;-64
2022/08/05 00:12:31;;;;;;;6.03;3.57;;;;;;;22.71;100.00;101238.00;2056438;28;20229;-64
2022/08/05 00:13:33;;;;;;;6.40;3.40;;;;;;;22.70;100.00;101253.41;2062987;28;20588;-64
2022/08/05 00:14:34;;;;;;;5.03;3.60;;;;;;;22.71;100.00;101241.59;2064371;28;20187;-64
2022/08/05 00:15:34;;;;;;;4.63;3.43;;;;;;;22.70;100.00;101242.88;2064416;28;20252;-64
2022/08/05 00:16:35;;;;;;;8.33;3.23;;;;;;;22.27;100.00;101183.94;2060592;28;20194;-64
2022/08/05 00:17:35;;;;;;;4.80;3.40;;;;;;;22.58;100.00;101229.16;2058152;28;20182;-64
2022/08/05 00:18:37;;;;;;;6.87;3.50;;;;;;;22.70;100.00;101237.25;2063103;28;20221;-64
2022/08/05 00:19:37;;;;;;;7.57;3.80;;;;;;;22.64;100.00;101238.47;2057044;28;20186;-63
2022/08/05 00:20:38;;;;;;;5.93;3.67;;;;;;;22.46;100.00;101211.34;2064828;28;20249;-63
2022/08/05 00:21:38;;;;;;;8.13;4.00;;;;;;;22.50;100.00;101206.25;2056482;28;20249;-64
2022/08/05 00:22:39;;;;;;;6.37;3.83;;;;;;;22.71;100.00;101238.00;2056677;28;20193;-65
2022/08/05 00:23:40;;;;;;;9.10;3.50;;;;;;;22.27;100.00;101164.94;2056646;28;20206;-63
2022/08/05 00:24:41;;;;;;;6.87;3.57;;;;;;;22.37;100.00;101179.66;2060126;28;20232;-64
2022/08/05 00:25:41;;;;;;;5.93;3.13;;;;;;;22.74;100.00;101229.31;2061112;28;20442;-63
2022/08/05 00:26:42;;;;;;;6.23;3.40;;;;;;;22.76;100.00;101240.09;2055771;28;20233;-65
2022/08/05 00:27:42;;;;;;;7.67;3.20;;;;;;;22.45;100.00;101190.03;2057065;28;20593;-65
2022/08/05 00:28:43;;;;;;;7.33;3.53;;;;;;;22.73;100.00;101236.22;2056561;28;20218;-63
2022/08/05 00:29:44;;;;;;;6.37;3.53;;;;;;;22.74;100.00;101246.28;2048383;28;20191;-64
2022/08/05 00:30:45;;;;;;;5.17;3.27;;;;;;;22.75;100.00;101253.47;2054892;28;20465;-64
2022/08/05 00:31:46;;;;;;;5.50;3.40;;;;;;;22.27;100.00;101159.28;2057624;28;20736;-64
2022/08/05 00:32:48;;;;;;;4.50;3.20;;;;;;;22.75;100.00;101244.19;2056459;28;20525;-64
2022/08/05 00:33:48;;;;;;;6.30;3.50;;;;;;;22.71;100.00;101240.81;2056527;28;20462;-64
2022/08/05 00:34:49;;;;;;;6.23;3.50;;;;;;;22.04;100.00;101154.72;2059023;28;20524;-64
2022/08/05 00:35:49;;;;;;;5.17;3.40;;;;;;;22.57;100.00;101236.84;2063601;28;20205;-64
2022/08/05 00:36:50;;;;;;;4.70;3.37;;;;;;;22.61;100.00;101234.59;2063159;28;20625;-64
2022/08/05 00:37:50;;;;;;;4.67;3.43;;;;;;;22.63;100.00;101237.69;2048344;29;20191;-64
2022/08/05 00:38:51;;;;;;;5.60;3.37;;;;;;;22.66;100.00;101236.69;2055520;28;20204;-64
2022/08/05 00:39:51;;;;;;;5.47;3.30;;;;;;;22.66;100.00;101230.25;2056598;28;20265;-64
2022/08/05 00:40:55;;;;;;;6.10;3.17;;;;;;;21.97;100.00;101129.00;2056583;28;20286;-64
2022/08/05 00:41:55;;;;;;;5.37;3.37;;;;;;;22.51;100.00;101233.22;2061222;28;20224;-64
2022/08/05 00:42:58;;;;;;;4.27;3.27;;;;;;;22.53;100.00;101236.34;2063230;28;20224;-63
2022/08/05 00:43:59;;;;;;;4.67;3.23;;;;;;;22.45;100.00;101240.88;2061267;28;20190;-64
2022/08/05 00:45:01;;;;;;;5.93;3.40;;;;;;;22.44;100.00;101244.97;2055657;28;20470;-64
2022/08/05 00:46:02;;;;;;;4.63;3.00;;;;;;;21.86;100.00;101146.56;2057026;28;20493;-64
2022/08/05 00:47:02;;;;;;;5.73;3.20;;;;;;;22.46;100.00;101230.34;2063232;28;20578;-64
2022/08/05 00:48:03;;;;;;;5.40;3.43;;;;;;;22.46;100.00;101233.94;2064911;28;20178;-63
2022/08/05 00:49:03;;;;;;;5.93;3.50;;;;;;;22.16;100.00;101204.34;2064370;28;20691;-64
2022/08/05 00:50:04;;;;;;;8.57;3.53;;;;;;;22.44;100.00;101242.16;2061089;28;20221;-63
2022/08/05 00:51:05;;;;;;;7.40;3.50;;;;;;;22.42;100.00;101244.66;2050588;28;20195;-64
2022/08/05 00:52:05;;;;;;;7.87;4.23;;;;;;;22.40;100.00;101238.72;2047768;28;20195;-64
2022/08/05 00:53:06;;;;;;;7.07;3.53;;;;;;;21.98;100.00;101175.69;2055560;28;20194;-64
2022/08/05 00:54:06;;;;;;;7.50;3.43;;;;;;;22.42;100.00;101232.59;2055877;28;20566;-64
2022/08/05 00:55:07;;;;;;;8.13;3.80;;;;;;;22.20;100.00;101198.47;2056201;28;20179;-64
2022/08/05 00:56:08;;;;;;;4.93;3.37;;;;;;;22.41;100.00;101214.09;2064415;28;20186;-64
2022/08/05 00:57:08;;;;;;;7.27;3.50;;;;;;;22.43;100.00;101217.19;2056283;28;20201;-64
2022/08/05 00:58:10;;;;;;;4.97;3.20;;;;;;;22.34;100.00;101211.72;2062443;28;20229;-64
2022/08/05 00:59:10;;;;;;;7.27;3.80;;;;;;;22.33;100.00;101224.28;2058916;28;20191;-64
2022/08/05 01:00:11;;;;;;;8.57;3.90;;;;;;;21.22;100.00;101091.72;2056352;28;20269;-64
2022/08/05 01:01:14;;;;;;;7.40;3.50;;;;;;;21.89;100.00;101244.34;2056533;28;20183;-63
2022/08/05 01:02:14;;;;;;;7.13;3.67;;;;;;;21.61;100.00;101208.59;2056205;28;20461;-65
2022/08/05 01:03:15;;;;;;;7.60;3.40;;;;;;;21.82;100.00;101244.78;2057886;28;21001;-63
2022/08/05 01:04:16;;;;;;;5.30;3.70;;;;;;;21.73;100.00;101230.03;2063031;28;20260;-64
2022/08/05 01:05:16;;;;;;;6.50;3.67;;;;;;;21.80;100.00;101236.03;2056418;28;20625;-64
2022/08/05 01:06:16;;;;;;;5.87;3.47;;;;;;;21.81;100.00;101237.56;2056017;28;20199;-64
2022/08/05 01:07:17;;;;;;;5.30;3.70;;;;;;;21.78;100.00;101235.75;2053429;28;20213;-64
2022/08/05 01:08:18;;;;;;;5.90;3.30;;;;;;;21.82;100.00;101241.19;2055646;28;20297;-64
2022/08/05 01:09:19;;;;;;;4.67;3.27;;;;;;;21.83;100.00;101235.06;2059453;28;20226;-64
2022/08/05 01:10:26;;;;;;;8.53;3.43;;;;;;;21.87;100.00;101232.78;2047691;28;20984;-64
2022/08/05 01:11:34;;;;;;;9.27;3.70;;;;;;;21.83;100.00;101215.31;2048644;28;20195;-64
2022/08/05 01:12:36;;;;;;;9.50;4.13;;;;;;;21.64;100.00;101204.78;2056197;28;20461;-64
2022/08/05 01:13:43;;;;;;;6.87;3.63;;;;;;;21.82;100.00;101238.34;2056115;28;20429;-64
2022/08/05 01:14:50;;;;;;;5.67;3.63;;;;;;;21.47;100.00;101182.00;2054951;28;20939;-64
2022/08/05 01:15:59;;;;;;;5.70;3.57;;;;;;;21.47;100.00;101182.00;2055613;28;20414;-64
2022/08/05 01:17:29;;;;;;;5.70;3.30;;;;;;;21.44;100.00;101176.59;2057454;28;20415;-64
2022/08/05 01:18:39;;;;;;;5.90;3.37;;;;;;;21.79;100.00;101236.50;2047614;28;21008;-64
2022/08/05 01:19:49;;;;;;;5.67;3.20;;;;;;;21.79;100.00;101233.69;2056316;28;20442;-63
2022/08/05 01:21:09;;;;;;;4.97;3.77;;;;;;;21.81;100.00;101234.00;2056246;28;20457;-64
2022/08/05 01:22:31;;;;;;;4.80;3.57;;;;;;;21.80;100.00;101233.19;2056326;28;20512;-63
2022/08/05 01:23:37;;;;;;;12.30;4.67;;;;;;;21.79;100.00;101239.34;2065014;28;20445;-64
2022/08/05 01:24:47;;;;;;;10.60;4.90;;;;;;;21.76;100.00;101240.34;2056046;28;20473;-63
2022/08/05 01:26:12;;;;;;;9.73;4.73;;;;;;;21.73;100.00;101233.66;2055824;28;20936;-64
2022/08/05 01:27:33;;;;;;;7.63;4.03;;;;;;;21.74;100.00;101237.25;2055500;28;20422;-64
2022/08/05 01:28:42;;;;;;;7.87;4.03;;;;;;;21.65;100.00;101231.72;2050029;28;20210;-64
2022/08/05 01:29:47;;;;;;;6.33;3.90;;;;;;;21.50;100.00;101217.66;2056516;28;20445;-64
2022/08/05 01:31:21;;;;;;;8.67;4.30;;;;;;;21.56;100.00;101248.78;2064024;28;20430;-64
2022/08/05 01:32:24;;;;;;;5.57;3.70;;;;;;;21.47;100.00;101238.41;2058421;28;20846;-63
2022/08/05 01:33:33;;;;;;;4.67;4.00;;;;;;;20.99;100.00;101161.09;2061062;28;20445;-64
2022/08/05 01:34:44;;;;;;;4.90;3.60;;;;;;;21.55;100.00;101239.53;2063892;28;20437;-63
2022/08/05 01:35:48;;;;;;;6.13;3.80;;;;;;;21.59;100.00;101239.34;2057204;28;20604;-64
2022/08/05 01:36:54;;;;;;;5.73;3.80;;;;;;;21.62;100.00;101241.94;2055812;28;20948;-63
2022/08/05 01:37:58;;;;;;;7.70;3.63;;;;;;;20.89;100.00;101137.19;2056037;28;20537;-64
2022/08/05 01:38:59;;;;;;;4.97;3.83;;;;;;;21.54;100.00;101229.53;2059752;28;20545;-64
2022/08/05 01:40:01;;;;;;;7.40;3.90;;;;;;;21.59;100.00;101239.34;2067001;28;20472;-63
2022/08/05 01:41:05;;;;;;;6.13;3.70;;;;;;;21.15;100.00;101169.03;2068099;28;20515;-64
2022/08/05 01:42:10;;;;;;;8.00;3.80;;;;;;;21.33;100.00;101191.31;2056343;28;20462;-64
2022/08/05 01:43:12;;;;;;;6.10;4.10;;;;;;;21.59;100.00;101230.88;2056745;28;20418;-64
2022/08/05 01:44:15;;;;;;;4.47;3.77;;;;;;;21.62;100.00;101229.88;2063843;28;20420;-64
2022/08/05 01:45:19;;;;;;;5.70;4.03;;;;;;;21.07;100.00;101142.53;2064224;28;20469;-64
2022/08/05 01:46:21;;;;;;;4.80;3.60;;;;;;;20.92;100.00;101119.28;2055578;28;20832;-64
2022/08/05 01:47:23;;;;;;;6.57;4.17;;;;;;;21.13;100.00;101153.91;2055089;28;20453;-64
2022/08/05 01:48:26;;;;;;;5.60;3.87;;;;;;;21.62;100.00;101227.06;2061719;28;20963;-64
2022/08/05 01:49:29;;;;;;;11.77;4.80;;;;;;;21.62;100.00;101233.47;2064287;28;20448;-64
2022/08/05 01:50:34;;;;;;;9.50;4.60;;;;;;;21.58;100.00;101232.13;2064071;28;20544;-65
2022/08/05 01:51:37;;;;;;;8.57;4.40;;;;;;;21.42;100.00;101224.22;2060327;28;20492;-65
2022/08/05 01:52:41;;;;;;;10.53;4.17;;;;;;;21.04;100.00;101185.00;2058786;28;20851;-65
2022/08/05 01:53:45;;;;;;;9.77;3.90;;;;;;;21.37;100.00;101239.03;2061636;28;20938;-65
2022/08/05 01:54:50;;;;;;;5.97;4.10;;;;;;;21.32;100.00;101240.50;2057252;28;20793;-64
2022/08/05 01:55:54;;;;;;;6.93;4.00;;;;;;;21.25;100.00;101238.13;2063477;28;20429;-64
2022/08/05 01:56:56;;;;;;;5.07;3.70;;;;;;;21.21;100.00;101245.22;2053889;28;20861;-65
2022/08/05 01:57:58;;;;;;;6.23;3.90;;;;;;;21.17;100.00;101236.97;2039837;29;20814;-65
2022/08/05 01:59:02;;;;;;;5.20;3.90;;;;;;;20.53;100.00;101145.28;2056057;28;20441;-65
2022/08/05 02:00:04;;;;;;;8.50;4.23;;;;;;;21.08;100.00;101242.72;2063571;28;20457;-65
2022/08/05 02:01:06;;;;;;;7.33;4.37;;;;;;;20.52;100.00;101174.72;2057496;28;20816;-65
2022/08/05 02:02:10;;;;;;;7.33;4.37;;;;;;;20.94;100.00;101260.41;2061245;28;20883;-64
2022/08/05 02:03:37;;;;;;;5.07;3.97;;;;;;;20.85;100.00;101242.84;2064166;28;20808;-65
2022/08/05 02:04:41;;;;;;;7.57;4.23;;;;;;;20.80;100.00;101232.25;2055943;28;20552;-65
2022/08/05 02:05:44;;;;;;;9.17;4.43;;;;;;;20.28;100.00;101165.59;2056043;28;20596;-64
2022/08/05 02:06:45;;;;;;;8.30;4.70;;;;;;;20.36;100.00;101172.41;2056920;28;20446;-65
2022/08/05 02:07:45;;;;;;;5.93;4.30;;;;;;;20.77;100.00;101236.81;2056942;28;20448;-65
2022/08/05 02:08:46;;;;;;;10.00;4.80;;;;;;;20.57;100.00;101217.03;2057189;28;20207;-64
2022/08/05 02:09:47;;;;;;;9.13;4.63;;;;;;;20.33;100.00;101193.06;2060072;28;20205;-65
2022/08/05 02:10:51;;;;;;;8.03;4.20;;;;;;;20.54;100.00;101228.50;2063493;28;20217;-65
2022/08/05 02:12:05;;;;;;;4.70;4.20;;;;;;;20.58;100.00;101237.53;2056905;28;20557;-65
2022/08/05 02:13:14;;;;;;;5.07;4.07;;;;;;;20.48;100.00;101239.69;2059369;28;20904;-65
2022/08/05 02:14:21;;;;;;;5.83;4.03;;;;;;;20.49;100.00;101238.41;2063569;28;20424;-65
2022/08/05 02:15:26;;;;;;;5.43;3.70;;;;;;;20.11;100.00;101187.06;2057228;28;20414;-65
2022/08/05 02:16:33;;;;;;;7.30;4.33;;;;;;;20.46;100.00;101245.00;2058475;28;20993;-65
2022/08/05 02:17:51;;;;;;;11.13;4.80;;;;;;;20.17;100.00;101244.97;2063837;28;20417;-65
2022/08/05 02:18:57;;;;;;;10.57;4.47;;;;;;;20.19;100.00;101239.66;2056419;28;20417;-64
2022/08/05 02:20:03;;;;;;;4.77;4.23;;;;;;;20.26;100.00;101244.88;2057615;28;20498;-65
2022/08/05 02:21:12;;;;;;;7.63;4.40;;;;;;;20.20;100.00;101237.59;2057174;28;20433;-65
2022/08/05 02:22:37;;;;;;;9.77;5.07;;;;;;;19.66;100.00;101170.56;2057487;28;20426;-65
2022/08/05 02:23:41;;;;;;;5.30;4.27;;;;;;;20.07;100.00;101248.34;2056426;28;20469;-65
2022/08/05 02:24:50;;;;;;;6.17;4.13;;;;;;;20.04;100.00;101252.09;2059970;28;20464;-65
2022/08/05 02:25:52;;;;;;;7.07;4.53;;;;;;;20.01;100.00;101265.09;2053014;28;20540;-65
2022/08/05 02:27:00;;;;;;;4.83;4.20;;;;;;;20.00;100.00;101249.47;2050506;28;20423;-65
2022/08/05 02:28:03;;;;;;;6.17;4.30;;;;;;;20.04;100.00;101252.09;2059111;28;20414;-65
2022/08/05 02:29:06;;;;;;;4.87;4.30;;;;;;;20.05;100.00;101259.31;2056661;28;20940;-65
2022/08/05 02:30:10;;;;;;;4.77;4.07;;;;;;;20.11;100.00;101243.34;2057162;28;20863;-65
2022/08/05 02:31:26;;;;;;;4.90;4.13;;;;;;;20.15;100.00;101241.88;2061800;28;20800;-65
2022/08/05 02:32:29;;;;;;;6.33;4.30;;;;;;;20.16;100.00;101251.09;2058760;28;20407;-66
2022/08/05 02:33:34;;;;;;;5.90;4.70;;;;;;;20.15;100.00;101255.94;2065395;28;20426;-65
2022/08/05 02:34:36;;;;;;;8.07;4.40;;;;;;;20.17;100.00;101247.03;2064555;28;20931;-65
2022/08/05 02:35:39;;;;;;;5.47;4.50;;;;;;;19.92;100.00;101206.13;2057821;28;20501;-65
2022/08/05 02:36:47;;;;;;;9.77;4.10;;;;;;;20.29;100.00;101245.97;2055851;28;20442;-65
2022/08/05 02:37:49;;;;;;;6.47;4.40;;;;;;;20.03;100.00;101205.53;2057019;28;20442;-65
2022/08/05 02:38:53;;;;;;;7.93;4.70;;;;;;;20.30;100.00;101251.09;2063209;28;20449;-64
2022/08/05 02:39:54;;;;;;;9.03;5.03;;;;;;;19.60;100.00;101133.88;2058732;28;20860;-65
2022/08/05 02:40:58;;;;;;;10.27;4.87;;;;;;;20.36;100.00;101260.44;2057133;28;20450;-66
2022/08/05 02:42:00;;;;;;;10.27;5.10;;;;;;;20.39;100.00;101248.22;2057064;28;20321;-65
2022/08/05 02:43:01;;;;;;;10.13;4.87;;;;;;;20.17;100.00;101207.63;2048323;28;20437;-65
2022/08/05 02:44:05;;;;;;;10.83;5.30;;;;;;;20.46;100.00;101252.69;2048500;28;20951;-65
2022/08/05 02:45:08;;;;;;;10.00;4.73;;;;;;;20.09;100.00;101184.72;2056696;28;20528;-65
2022/08/05 02:46:09;;;;;;;7.33;4.50;;;;;;;20.10;100.00;101185.47;2056854;28;20425;-65
2022/08/05 02:47:11;;;;;;;8.67;4.70;;;;;;;20.56;100.00;101249.28;2056916;28;20480;-65
2022/08/05 02:48:13;;;;;;;7.03;4.47;;;;;;;20.61;100.00;101257.03;2057723;28;20191;-65
2022/08/05 02:49:15;;;;;;;9.97;4.43;;;;;;;20.17;100.00;101179.47;2057057;28;20520;-64
2022/08/05 02:50:16;;;;;;;7.73;4.17;;;;;;;20.23;100.00;101202.88;2061131;28;20444;-65
2022/08/05 02:51:18;;;;;;;6.60;4.00;;;;;;;20.64;100.00;101258.09;2064833;28;20559;-65
2022/08/05 02:52:19;;;;;;;7.70;4.40;;;;;;;20.61;100.00;101242.97;2060371;28;20452;-64
2022/08/05 02:53:21;;;;;;;9.10;4.40;;;;;;;20.68;100.00;101253.81;2057120;28;20503;-65
2022/08/05 02:54:23;;;;;;;8.03;4.30;;;;;;;20.65;100.00;101254.81;2059353;28;20514;-65
2022/08/05 02:55:25;;;;;;;9.83;5.17;;;;;;;20.66;100.00;101262.00;2063518;28;20445;-65
2022/08/05 02:56:26;;;;;;;11.23;5.50;;;;;;;20.17;100.00;101177.44;2056461;28;20484;-65
2022/08/05 02:57:28;;;;;;;10.07;5.40;;;;;;;20.72;100.00;101262.09;2056678;28;20417;-65
2022/08/05 02:58:30;;;;;;;8.60;4.50;;;;;;;20.71;100.00;101244.41;2057525;28;20432;-65
2022/08/05 02:59:31;;;;;;;6.30;4.73;;;;;;;20.22;100.00;101164.72;2064013;28;20814;-64
2022/08/05 03:00:34;;;;;;;8.17;4.50;;;;;;;20.58;100.00;101229.06;2058881;28;21010;-65
2022/08/05 03:01:41;;;;;;;8.60;4.63;;;;;;;20.72;100.00;101240.31;2056423;28;20481;-64
2022/08/05 03:02:44;;;;;;;8.77;4.60;;;;;;;20.42;100.00;101193.72;2057183;28;20445;-64
2022/08/05 03:03:49;;;;;;;7.07;4.57;;;;;;;20.88;100.00;101251.06;2056891;28;20478;-64
2022/08/05 03:04:51;;;;;;;9.37;4.67;;;;;;;20.90;100.00;101254.22;2056465;28;20478;-65
2022/08/05 03:05:52;;;;;;;6.57;4.30;;;;;;;20.93;100.00;101258.13;2059665;28;20524;-65
2022/08/05 03:06:53;;;;;;;5.93;4.10;;;;;;;20.89;100.00;101249.88;2055652;28;20421;-64
2022/08/05 03:07:54;;;;;;;8.00;4.30;;;;;;;20.91;100.00;101246.53;2055223;28;20171;-65
2022/08/05 03:08:55;;;;;;;5.57;4.30;;;;;;;20.92;100.00;101248.09;2056738;28;20418;-64
2022/08/05 03:09:56;;;;;;;6.47;4.47;;;;;;;20.56;100.00;101203.44;2057434;28;20176;-64
2022/08/05 03:10:56;;;;;;;5.20;3.60;;;;;;;20.27;100.00;101164.06;2064162;28;20537;-65
2022/08/05 03:11:57;;;;;;;6.87;4.27;;;;;;;20.34;100.00;101178.50;2064286;28;20197;-65
2022/08/05 03:12:58;;;;;;;7.37;4.40;;;;;;;20.47;100.00;101195.88;2059700;28;20187;-66
2022/08/05 03:13:58;;;;;;;10.30;4.20;;;;;;;20.90;100.00;101256.25;2061077;28;20190;-65
2022/08/05 03:14:59;;;;;;;7.13;4.27;;;;;;;20.84;100.00;101252.56;2064666;28;20198;-65
2022/08/05 03:15:59;;;;;;;11.27;4.73;;;;;;;20.85;100.00;101256.91;2064352;28;20711;-65
2022/08/05 03:17:00;;;;;;;10.50;3.90;;;;;;;20.86;100.00;101258.47;2064094;28;20182;-65
2022/08/05 03:18:00;;;;;;;10.33;4.10;;;;;;;20.43;100.00;101188.88;2065059;28;20182;-64
2022/08/05 03:19:01;;;;;;;5.73;3.83;;;;;;;20.88;100.00;101250.31;2057039;28;20200;-65
2022/08/05 03:20:04;;;;;;;6.30;3.80;;;;;;;20.71;100.00;101229.53;2057271;28;20576;-65
2022/08/05 03:21:05;;;;;;;8.10;3.53;;;;;;;20.47;100.00;101195.88;2065372;28;20444;-65
2022/08/05 03:22:05;;;;;;;5.33;4.00;;;;;;;20.76;100.00;101231.66;2067513;28;20444;-64
2022/08/05 03:23:08;;;;;;;6.37;3.60;;;;;;;20.85;100.00;101246.44;2060580;28;20209;-64
2022/08/05 03:24:09;;;;;;;8.23;3.60;;;;;;;20.54;100.00;101187.03;2057025;28;20198;-64
2022/08/05 03:25:10;;;;;;;3.87;3.40;;;;;;;21.00;100.00;101255.66;2056386;28;20469;-65
2022/08/05 03:26:11;;;;;;;5.47;3.93;;;;;;;20.90;100.00;101236.53;2057514;28;20423;-64
2022/08/05 03:27:12;;;;;;;7.97;3.70;;;;;;;20.97;100.00;101239.72;2064390;28;20187;-64
2022/08/05 03:28:13;;;;;;;5.60;3.80;;;;;;;21.06;100.00;101258.56;2063099;28;20182;-64
2022/08/05 03:29:14;;;;;;;6.50;3.80;;;;;;;20.48;100.00;101169.28;2057525;28;20575;-65
2022/08/05 03:30:14;;;;;;;5.37;3.43;;;;;;;21.02;100.00;101260.78;2056990;28;20442;-64
2022/08/05 03:31:15;;;;;;;10.87;4.00;;;;;;;21.04;100.00;101258.28;2067220;28;20200;-64
2022/08/05 03:32:18;;;;;;;7.27;4.13;;;;;;;21.07;100.00;101255.25;2065158;28;20191;-64
2022/08/05 03:33:19;;;;;;;9.57;4.10;;;;;;;21.12;100.00;101256.59;2050506;28;20198;-65
2022/08/05 03:34:19;;;;;;;10.23;4.53;;;;;;;20.56;100.00;101167.59;2055808;28;20422;-65
2022/08/05 03:35:21;;;;;;;7.43;4.37;;;;;;;21.16;100.00;101257.97;2063487;28;20418;-64
2022/08/05 03:36:21;;;;;;;6.90;4.17;;;;;;;20.53;100.00;101184.72;2047621;28;20254;-64
2022/08/05 03:37:22;;;;;;;8.37;4.30;;;;;;;21.04;100.00;101235.72;2056018;28;20438;-65
2022/08/05 03:38:24;;;;;;;11.23;4.07;;;;;;;21.12;100.00;101257.38;2056283;28;20294;-65
2022/08/05 03:39:24;;;;;;;10.70;4.30;;;;;;;21.10;100.00;101257.09;2056949;28;20202;-64
2022/08/05 03:40:25;;;;;;;5.13;3.47;;;;;;;20.61;100.00;101194.28;2056670;28;20485;-64
2022/08/05 03:41:26;;;;;;;8.63;4.17;;;;;;;21.12;100.00;101259.41;2048682;29;20219;-64
2022/08/05 03:42:28;;;;;;;7.27;3.93;;;;;;;20.98;100.00;101241.28;2055206;28;20238;-64
2022/08/05 03:43:28;;;;;;;9.63;3.67;;;;;;;20.67;100.00;101192.38;2056823;28;20419;-65
2022/08/05 03:44:29;;;;;;;10.20;4.40;;;;;;;21.18;100.00;101263.13;2055818;28;20513;-64
2022/08/05 03:45:29;;;;;;;11.83;4.20;;;;;;;20.96;100.00;101241.00;2056985;28;20194;-64
2022/08/05 03:46:30;;;;;;;9.37;4.20;;;;;;;21.17;100.00;101261.53;2056188;28;20241;-65
2022/08/05 03:47:30;;;;;;;6.50;3.93;;;;;;;21.19;100.00;101267.47;2056587;28;20190;-65
2022/08/05 03:48:31;;;;;;;6.97;4.00;;;;;;;21.21;100.00;101265.72;2056788;28;20723;-65
2022/08/05 03:49:31;;;;;;;6.90;3.87;;;;;;;21.23;100.00;101268.06;2058859;28;20183;-65
2022/08/05 03:50:55;;;;;;;7.40;4.10;;;;;;;21.17;100.00;101275.63;2063479;28;20220;-64
2022/08/05 03:51:59;;;;;;;6.37;3.30;;;;;;;21.18;100.00;101280.03;2056524;28;20253;-64
2022/08/05 03:53:07;;;;;;;6.70;3.40;;;;;;;21.15;100.00;101270.50;2056876;28;20560;-65
2022/08/05 03:54:20;;;;;;;7.30;3.93;;;;;;;21.11;100.00;101277.59;2058667;28;20892;-65
2022/08/05 03:55:25;;;;;;;7.67;3.60;;;;;;;21.16;100.00;101277.69;2061340;28;20771;-64
2022/08/05 03:56:35;;;;;;;7.60;3.83;;;;;;;21.09;100.00;101277.31;2058782;28;20936;-64
2022/08/05 03:57:38;;;;;;;10.20;4.87;;;;;;;21.17;100.00;101272.81;2061401;28;20543;-65
2022/08/05 03:58:42;;;;;;;8.77;4.73;;;;;;;21.20;100.00;101275.44;2056429;28;20414;-65
2022/08/05 03:59:48;;;;;;;14.33;5.60;;;;;;;21.22;100.00;101278.53;2058392;28;20414;-65
2022/08/05 04:00:51;;;;;;;14.80;5.03;;;;;;;21.22;100.00;101270.09;2064470;28;20409;-65
2022/08/05 04:01:55;;;;;;;11.07;5.87;;;;;;;21.25;100.00;101277.56;2064024;28;20488;-64
2022/08/05 04:02:58;;;;;;;6.03;4.80;;;;;;;21.27;100.00;101286.31;2057133;28;20419;-65
2022/08/05 04:04:01;;;;;;;10.07;4.53;;;;;;;20.48;100.00;101171.31;2056892;28;20441;-64
2022/08/05 04:05:04;;;;;;;10.50;4.60;;;;;;;21.00;100.00;101243.59;2055532;28;20990;-64
2022/08/05 04:06:05;;;;;;;11.17;4.53;;;;;;;20.54;100.00;101181.41;2056322;28;20820;-64
2022/08/05 04:07:07;;;;;;;10.80;4.37;;;;;;;20.67;100.00;101198.75;2055649;28;20901;-65
2022/08/05 04:08:11;;;;;;;8.77;4.50;;;;;;;21.29;100.00;101285.81;2056464;28;20449;-65
2022/08/05 04:09:14;;;;;;;7.70;4.67;;;;;;;21.26;100.00;101281.94;2056617;28;20876;-65
2022/08/05 04:10:16;;;;;;;8.03;4.03;;;;;;;21.29;100.00;101280.94;2056458;28;20453;-64
2022/08/05 04:11:17;;;;;;;7.33;4.50;;;;;;;21.31;100.00;101283.28;2056369;28;20179;-65
2022/08/05 04:12:17;;;;;;;8.03;3.90;;;;;;;21.30;100.00;101279.69;2056508;28;20463;-64
2022/08/05 04:13:20;;;;;;;11.70;4.53;;;;;;;21.30;100.00;101285.34;2056860;28;20206;-64
2022/08/05 04:14:20;;;;;;;5.87;4.13;;;;;;;21.32;100.00;101279.19;2064867;28;20193;-64
2022/08/05 04:15:21;;;;;;;7.07;4.37;;;;;;;21.33;100.00;101280.75;2056489;28;20466;-65
2022/08/05 04:16:22;;;;;;;8.20;4.60;;;;;;;21.11;100.00;101246.59;2061812;28;20194;-65
2022/08/05 04:17:23;;;;;;;7.67;4.37;;;;;;;21.34;100.00;101282.31;2064133;28;20291;-65
2022/08/05 04:18:24;;;;;;;11.83;4.77;;;;;;;21.36;100.00;101282.59;2059893;28;20442;-65
2022/08/05 04:19:26;;;;;;;10.97;5.17;;;;;;;21.34;100.00;101273.84;2059249;28;20653;-65
2022/08/05 04:20:26;;;;;;;7.23;4.33;;;;;;;21.28;100.00;101270.94;2061043;28;20438;-65
2022/08/05 04:21:27;;;;;;;8.90;4.93;;;;;;;21.23;100.00;101274.47;2056918;28;20444;-65
2022/08/05 04:22:28;;;;;;;9.37;4.87;;;;;;;21.42;100.00;101284.22;2057097;28;20181;-67
2022/08/05 04:23:29;;;;;;;9.30;4.50;;;;;;;21.44;100.00;101284.50;2059950;28;20182;-67
2022/08/05 04:24:29;;;;;;;9.00;4.37;;;;;;;21.42;100.00;101272.16;2064761;28;20208;-67
2022/08/05 04:25:30;;;;;;;8.53;4.60;;;;;;;21.50;100.00;101284.59;2065559;28;20475;-66
2022/08/05 04:26:30;;;;;;;6.53;4.47;;;;;;;21.46;100.00;101281.97;2064693;28;20271;-67
2022/08/05 04:27:31;;;;;;;6.80;4.40;;;;;;;21.53;100.00;101286.41;2065346;28;20209;-66
2022/08/05 04:28:31;;;;;;;10.00;4.60;;;;;;;21.58;100.00;101288.53;2063721;28;20613;-67
2022/08/05 04:29:32;;;;;;;6.47;4.57;;;;;;;21.59;100.00;101276.75;2064226;28;20198;-67
2022/08/05 04:30:33;;;;;;;11.20;4.80;;;;;;;21.54;100.00;101271.06;2062863;28;20198;-67
2022/08/05 04:31:34;;;;;;;8.10;4.83;;;;;;;21.30;100.00;101222.53;2063840;28;20236;-67
2022/08/05 04:32:35;;;;;;;5.53;4.10;;;;;;;21.72;100.00;101288.53;2068915;28;20181;-66
2022/08/05 04:33:35;;;;;;;6.33;4.40;;;;;;;21.73;100.00;101287.25;2063870;28;20488;-66
2022/08/05 04:34:36;;;;;;;6.00;4.40;;;;;;;21.76;100.00;101291.91;2065550;28;20186;-67
2022/08/05 04:35:36;;;;;;;5.50;4.53;;;;;;;21.65;100.00;101266.31;2064574;28;20377;-67
2022/08/05 04:36:37;;;;;;;7.23;4.50;;;;;;;21.80;100.00;101291.69;2070835;28;20537;-67
2022/08/05 04:37:37;;;;;;;8.63;4.37;;;;;;;21.32;100.00;101217.94;2070583;28;20204;-66
2022/08/05 04:38:38;;;;;;;6.33;4.60;;;;;;;20.96;100.00;101156.47;2063657;28;20185;-67
2022/08/05 04:39:38;;;;;;;10.60;5.00;;;;;;;21.81;100.00;101284.78;2061501;28;20210;-67
2022/08/05 04:40:40;;;;;;;9.13;4.67;;;;;;;21.42;100.00;101225.00;2068880;28;20209;-67
2022/08/05 04:41:40;;;;;;;9.23;4.27;;;;;;;21.51;100.00;101243.84;2064488;28;20619;-67
2022/08/05 04:42:41;;;;;;;8.97;4.63;;;;;;;21.80;100.00;101272.69;2066648;28;20487;-66
2022/08/05 04:43:41;;;;;;;8.27;4.90;;;;;;;21.90;100.00;101284.63;2058233;28;20194;-67
2022/08/05 04:44:41;;;;;;;11.10;5.27;;;;;;;21.92;100.00;101290.56;2061929;28;20197;-67
2022/08/05 04:45:42;;;;;;;8.30;4.60;;;;;;;21.84;100.00;101283.78;2063307;28;20381;-67
2022/08/05 04:46:43;;;;;;;8.40;4.73;;;;;;;21.95;100.00;101293.16;2056042;28;20621;-67
2022/08/05 04:47:43;;;;;;;9.30;5.07;;;;;;;21.49;100.00;101210.47;2056617;28;20277;-67
2022/08/05 04:48:43;;;;;;;7.17;4.33;;;;;;;21.97;100.00;101285.00;2067851;28;20264;-67
2022/08/05 04:49:44;;;;;;;5.57;4.10;;;;;;;22.06;100.00;101290.47;2062722;28;20202;-67